createdAt,value
2018-08-25T00:01:43.008Z,99.90
2018-08-25T00:04:10.810Z,99.90
2018-08-25T00:06:38.613Z,99.90
2018-08-25T00:09:08.140Z,99.90
2018-08-25T00:11:35.950Z,99.90
2018-08-25T00:14:03.773Z,99.90
2018-08-25T00:16:32.566Z,99.90
2018-08-25T00:19:00.882Z,99.90
2018-08-25T00:21:28.689Z,99.90
2018-08-25T00:23:56.546Z,99.90
2018-08-25T00:26:24.405Z,99.90
2018-08-25T00:28:52.272Z,99.90
2018-08-25T00:31:24.109Z,99.90
2018-08-25T00:33:53.076Z,99.90
2018-08-25T00:36:21.295Z,99.90
2018-08-25T00:38:49.179Z,99.90
2018-08-25T00:41:17.100Z,99.90
2018-08-25T00:43:45.061Z,99.90
2018-08-25T00:46:12.924Z,99.90
2018-08-25T00:48:40.765Z,99.90
2018-08-25T00:51:08.603Z,99.90
2018-08-25T00:53:36.671Z,99.90
2018-08-25T00:56:04.716Z,99.90
2018-08-25T00:58:32.650Z,99.90
2018-08-25T01:01:00.879Z,99.90
2018-08-25T01:03:28.707Z,99.90
2018-08-25T01:05:56.511Z,99.90
2018-08-25T01:08:24.361Z,99.90
2018-08-25T01:10:52.174Z,99.90
2018-08-25T01:13:20.065Z,99.90
2018-08-25T01:15:47.908Z,99.90
2018-08-25T01:18:15.709Z,99.90
2018-08-25T01:20:43.540Z,99.90
2018-08-25T01:23:11.314Z,99.90
2018-08-25T01:25:39.118Z,99.90
2018-08-25T01:28:06.929Z,99.90
2018-08-25T01:30:34.753Z,99.90
2018-08-25T01:33:02.549Z,99.90
2018-08-25T01:35:30.323Z,99.90
2018-08-25T01:37:58.179Z,99.90
2018-08-25T01:40:26.090Z,99.90
2018-08-25T01:42:54.084Z,99.90
2018-08-25T01:45:21.889Z,99.90
2018-08-25T01:50:17.394Z,99.90
2018-08-25T01:52:45.151Z,99.90
2018-08-25T01:55:13.015Z,99.90
2018-08-25T01:57:41.794Z,99.90
2018-08-25T02:00:09.600Z,99.90
2018-08-25T02:02:37.488Z,99.90
2018-08-25T02:05:05.315Z,99.90
2018-08-25T02:07:33.529Z,99.90
2018-08-25T02:10:01.298Z,99.90
2018-08-25T02:12:29.198Z,99.90
2018-08-25T02:14:57.028Z,99.90
2018-08-25T02:17:24.850Z,99.90
2018-08-25T02:19:52.665Z,99.90
2018-08-25T02:22:20.434Z,99.90
2018-08-25T02:24:48.217Z,99.90
2018-08-25T02:27:16.062Z,99.90
2018-08-25T02:29:44.915Z,99.90
2018-08-25T02:32:12.699Z,99.90
2018-08-25T02:34:40.443Z,99.90
2018-08-25T02:37:08.202Z,99.90
2018-08-25T02:39:36.061Z,99.90
2018-08-25T02:42:03.861Z,99.90
2018-08-25T02:44:31.661Z,99.90
2018-08-25T02:46:59.456Z,99.90
2018-08-25T02:49:27.319Z,99.90
2018-08-25T02:51:55.120Z,99.90
2018-08-25T02:54:22.885Z,99.90
2018-08-25T02:56:52.698Z,99.90
2018-08-25T02:59:20.486Z,99.90
2018-08-25T03:48:36.448Z,99.90
2018-08-25T03:51:04.345Z,99.90
2018-08-25T03:53:32.132Z,99.90
2018-08-25T03:55:59.984Z,99.90
2018-08-25T03:58:27.786Z,99.90
2018-08-25T04:00:55.590Z,99.90
2018-08-25T04:03:23.389Z,99.90
2018-08-25T04:05:51.153Z,99.90
2018-08-25T04:08:18.950Z,99.90
2018-08-25T04:10:46.728Z,99.90
2018-08-25T04:13:14.522Z,99.90
2018-08-25T04:15:42.351Z,99.90
2018-08-25T04:18:10.229Z,99.90
2018-08-25T04:20:38.026Z,99.90
2018-08-25T04:23:05.861Z,99.90
2018-08-25T04:25:33.623Z,99.90
2018-08-25T04:28:01.429Z,99.90
2018-08-25T04:30:29.221Z,99.90
2018-08-25T04:32:57.018Z,99.90
2018-08-25T04:35:24.785Z,99.90
2018-08-25T04:37:52.575Z,99.90
2018-08-25T04:40:20.376Z,99.90
2018-08-25T04:42:48.329Z,99.90
2018-08-25T04:45:16.152Z,99.90
2018-08-25T04:47:44.116Z,99.90
2018-08-25T04:50:12.209Z,99.90
2018-08-25T04:52:40.148Z,99.90
2018-08-25T04:55:08.064Z,99.90
2018-08-25T04:57:35.938Z,99.90
2018-08-25T05:00:04.154Z,99.90
2018-08-25T05:02:32.003Z,99.90
2018-08-25T05:04:59.896Z,99.90
2018-08-25T05:07:27.734Z,99.90
2018-08-25T05:09:55.809Z,99.90
2018-08-25T05:12:23.707Z,99.90
2018-08-25T05:14:51.693Z,99.90
2018-08-25T05:17:19.619Z,99.90
2018-08-25T05:19:47.567Z,99.90
2018-08-25T05:22:15.446Z,99.90
2018-08-25T05:24:43.355Z,99.90
2018-08-25T05:27:11.271Z,99.90
2018-08-25T05:29:39.183Z,99.90
2018-08-25T05:32:07.084Z,99.90
2018-08-25T05:34:35.052Z,99.90
2018-08-25T05:37:02.936Z,99.90
2018-08-25T05:39:30.897Z,99.90
2018-08-25T05:44:27.490Z,99.90
2018-08-25T05:46:55.369Z,99.90
2018-08-25T05:49:23.297Z,99.90
2018-08-25T05:52:15.110Z,99.90
2018-08-25T05:54:42.980Z,99.90
2018-08-25T05:57:10.798Z,99.90
2018-08-25T05:59:38.590Z,99.90
2018-08-25T06:02:07.459Z,99.90
2018-08-25T06:04:36.372Z,99.90
2018-08-25T06:07:05.344Z,99.90
2018-08-25T06:09:34.254Z,99.90
2018-08-25T06:12:03.059Z,99.90
2018-08-25T06:14:31.952Z,99.90
2018-08-25T06:17:02.912Z,99.90
2018-08-25T06:19:31.572Z,99.90
2018-08-25T06:22:00.600Z,99.90
2018-08-25T06:24:29.139Z,99.90
2018-08-25T06:26:57.243Z,99.90
2018-08-25T06:29:25.222Z,99.90
2018-08-25T06:31:53.094Z,99.90
2018-08-25T06:34:21.025Z,99.90
2018-08-25T06:39:59.945Z,99.90
2018-08-25T06:42:27.789Z,99.90
2018-08-25T06:44:55.735Z,99.90
2018-08-25T06:47:23.533Z,99.90
2018-08-25T06:52:27.046Z,99.90
2018-08-25T06:55:07.820Z,99.90
2018-08-25T06:57:35.868Z,99.90
2018-08-25T07:03:05.167Z,99.90
2018-08-25T07:05:33.000Z,99.90
2018-08-25T07:08:00.833Z,99.90
2018-08-25T07:10:29.704Z,99.90
2018-08-25T07:12:57.522Z,99.90
2018-08-25T07:15:25.327Z,99.90
2018-08-25T07:17:53.159Z,99.90
2018-08-25T07:20:20.991Z,99.90
2018-08-25T07:22:48.821Z,99.90
2018-08-25T07:25:16.653Z,99.90
2018-08-25T07:27:44.427Z,99.90
2018-08-25T07:30:12.229Z,99.90
2018-08-25T07:32:40.074Z,99.90
2018-08-25T07:35:07.886Z,99.90
2018-08-25T07:37:35.733Z,99.90
2018-08-25T07:40:03.657Z,99.90
2018-08-25T07:42:31.538Z,99.90
2018-08-25T07:45:14.442Z,99.90
2018-08-25T07:47:42.477Z,99.90
2018-08-25T07:53:20.135Z,99.90
2018-08-25T07:55:48.100Z,99.90
2018-08-25T07:58:16.012Z,99.90
2018-08-25T08:00:43.934Z,99.90
2018-08-25T08:03:11.825Z,99.90
2018-08-25T08:05:39.770Z,99.90
2018-08-25T08:08:07.597Z,99.90
2018-08-25T08:10:35.495Z,99.90
2018-08-25T08:13:03.391Z,99.90
2018-08-25T08:15:31.366Z,99.90
2018-08-25T08:17:59.415Z,99.90
2018-08-25T08:20:27.338Z,99.90
2018-08-25T08:22:55.231Z,99.90
2018-08-25T08:25:23.133Z,99.90
2018-08-25T08:27:51.021Z,99.90
2018-08-25T08:30:18.950Z,99.90
2018-08-25T08:32:46.844Z,99.90
2018-08-25T08:35:14.787Z,99.90
2018-08-25T08:40:10.536Z,99.90
2018-08-25T08:42:38.482Z,99.90
2018-08-25T08:52:31.247Z,99.90
2018-08-25T08:54:59.176Z,99.90
2018-08-25T08:57:27.060Z,99.90
2018-08-25T08:59:55.665Z,99.90
2018-08-25T09:02:23.666Z,99.90
2018-08-25T09:04:51.511Z,99.90
2018-08-25T09:07:21.340Z,99.90
2018-08-25T09:09:49.328Z,99.90
2018-08-25T09:12:17.239Z,99.90
2018-08-25T09:14:45.063Z,99.90
2018-08-25T09:17:13.612Z,99.90
2018-08-25T09:19:41.973Z,99.90
2018-08-25T09:22:09.837Z,99.90
2018-08-25T09:24:37.732Z,99.90
2018-08-25T09:27:05.633Z,99.90
2018-08-25T09:29:33.524Z,99.90
2018-08-25T09:32:01.944Z,99.90
2018-08-25T09:34:29.809Z,99.90
2018-08-25T09:36:57.796Z,99.90
2018-08-25T09:39:25.648Z,99.90
2018-08-25T09:41:53.466Z,99.90
2018-08-25T09:46:49.185Z,99.90
2018-08-25T09:49:17.018Z,99.90
2018-08-25T09:51:44.907Z,99.90
2018-08-25T09:54:12.751Z,99.90
2018-08-25T09:56:40.608Z,99.90
2018-08-25T09:59:08.434Z,99.90
2018-08-25T10:01:41.669Z,99.90
2018-08-25T10:04:09.436Z,99.90
2018-08-25T10:06:38.424Z,99.90
2018-08-25T10:09:07.472Z,99.90
2018-08-25T10:11:35.318Z,99.90
2018-08-25T10:14:03.318Z,99.90
2018-08-25T10:16:31.338Z,99.90
2018-08-25T10:18:59.137Z,99.90
2018-08-25T10:21:26.931Z,99.90
2018-08-25T10:23:55.826Z,99.90
2018-08-25T10:26:23.749Z,99.90
2018-08-25T10:28:51.755Z,99.90
2018-08-25T10:31:21.446Z,99.90
2018-08-25T10:33:49.322Z,99.90
2018-08-25T10:38:45.014Z,99.90
2018-08-25T10:41:12.800Z,99.90
2018-08-25T10:43:41.729Z,98.40
2018-08-25T10:46:09.574Z,99.50
2018-08-25T10:48:37.469Z,99.90
2018-08-25T10:51:05.456Z,99.90
2018-08-25T10:53:34.348Z,98.40
2018-08-25T10:56:02.208Z,98.50
2018-08-25T10:58:35.469Z,97.50
2018-08-25T11:01:03.404Z,98.40
2018-08-25T11:06:12.594Z,98.30
2018-08-25T11:08:40.482Z,97.50
2018-08-25T11:11:08.345Z,96.50
2018-08-25T11:13:36.175Z,96.00
2018-08-25T11:16:04.091Z,97.70
2018-08-25T11:18:31.904Z,98.70
2018-08-25T11:20:59.864Z,99.90
2018-08-25T11:23:27.755Z,98.90
2018-08-25T11:25:55.809Z,98.30
2018-08-25T11:28:23.609Z,98.30
2018-08-25T11:30:52.516Z,98.70
2018-08-25T11:33:20.292Z,98.70
2018-08-25T11:35:48.255Z,98.70
2018-08-25T11:38:16.078Z,98.00
2018-08-25T11:40:45.024Z,98.90
2018-08-25T11:43:12.885Z,99.30
2018-08-25T11:45:40.709Z,99.10
2018-08-25T11:48:08.637Z,96.10
2018-08-25T11:50:36.595Z,95.60
2018-08-25T11:53:04.456Z,99.90
2018-08-25T11:55:32.320Z,94.70
2018-08-25T11:58:00.214Z,94.20
2018-08-25T12:02:56.128Z,95.20
2018-08-25T12:05:24.124Z,95.80
2018-08-25T12:07:51.920Z,95.90
2018-08-25T12:10:19.728Z,97.00
2018-08-25T12:12:47.521Z,98.50
2018-08-25T12:15:15.368Z,98.30
2018-08-25T12:17:45.408Z,96.90
2018-08-25T12:20:13.238Z,95.70
2018-08-25T12:22:42.759Z,96.00
2018-08-25T12:25:10.643Z,96.50
2018-08-25T12:27:38.635Z,96.00
2018-08-25T12:30:06.850Z,95.70
2018-08-25T12:32:34.836Z,95.00
2018-08-25T12:35:02.707Z,95.30
2018-08-25T12:37:30.693Z,93.60
2018-08-25T12:39:58.660Z,93.40
2018-08-25T12:42:26.456Z,94.30
2018-08-25T12:44:55.501Z,94.30
2018-08-25T12:47:26.263Z,95.00
2018-08-25T12:49:55.716Z,93.10
2018-08-25T12:52:23.515Z,92.60
2018-08-25T12:54:51.384Z,93.00
2018-08-25T12:57:19.909Z,92.30
2018-08-25T12:59:48.753Z,92.80
2018-08-25T13:02:16.607Z,92.40
2018-08-25T13:04:44.553Z,92.00
2018-08-25T13:07:13.585Z,93.10
2018-08-25T13:09:41.849Z,94.00
2018-08-25T13:12:09.899Z,92.50
2018-08-25T13:14:37.718Z,93.50
2018-08-25T13:17:06.727Z,93.50
2018-08-25T13:19:34.669Z,91.90
2018-08-25T13:22:03.706Z,90.90
2018-08-25T13:24:31.657Z,90.40
2018-08-25T13:26:59.632Z,89.90
2018-08-25T13:29:45.240Z,90.10
2018-08-25T13:32:13.071Z,92.30
2018-08-25T13:34:40.861Z,94.00
2018-08-25T13:37:08.637Z,94.20
2018-08-25T13:39:36.456Z,93.20
2018-08-25T13:42:05.449Z,92.10
2018-08-25T13:44:33.307Z,91.40
2018-08-25T13:47:01.112Z,91.90
2018-08-25T13:49:29.027Z,92.20
2018-08-25T13:51:56.827Z,91.50
2018-08-25T13:54:24.637Z,91.30
2018-08-25T13:56:52.390Z,92.40
2018-08-25T13:59:20.205Z,92.00
2018-08-25T14:01:48.058Z,92.10
2018-08-25T14:04:15.850Z,90.40
2018-08-25T14:06:44.459Z,90.60
2018-08-25T14:09:12.259Z,91.30
2018-08-25T14:11:40.044Z,90.20
2018-08-25T14:14:07.881Z,90.60
2018-08-25T14:16:36.720Z,91.70
2018-08-25T14:19:04.604Z,90.80
2018-08-25T14:21:32.414Z,90.50
2018-08-25T14:24:00.208Z,92.40
2018-08-25T14:26:28.026Z,93.10
2018-08-25T14:28:55.897Z,92.50
2018-08-25T14:31:23.658Z,93.10
2018-08-25T14:33:51.462Z,93.10
2018-08-25T14:36:19.352Z,90.80
2018-08-25T14:38:47.156Z,90.30
2018-08-25T14:41:14.953Z,88.00
2018-08-25T14:46:38.104Z,90.10
2018-08-25T14:49:07.122Z,90.60
2018-08-25T14:51:34.910Z,90.20
2018-08-25T14:54:02.729Z,90.10
2018-08-25T14:56:30.693Z,90.60
2018-08-25T14:58:58.686Z,91.60
2018-08-25T15:01:26.599Z,92.00
2018-08-25T15:03:54.568Z,90.70
2018-08-25T15:06:22.511Z,90.40
2018-08-25T15:08:57.439Z,87.50
2018-08-25T15:11:27.774Z,88.20
2018-08-25T15:13:55.650Z,90.20
2018-08-25T15:16:23.580Z,90.00
2018-08-25T15:18:51.573Z,89.00
2018-08-25T15:21:19.384Z,90.50
2018-08-25T15:23:47.363Z,89.70
2018-08-25T15:26:15.244Z,90.10
2018-08-25T15:28:43.095Z,90.10
2018-08-25T15:31:10.927Z,90.10
2018-08-25T15:33:40.831Z,89.90
2018-08-25T15:36:08.630Z,90.30
2018-08-25T15:38:36.542Z,90.80
2018-08-25T15:41:04.713Z,92.60
2018-08-25T15:43:32.711Z,94.20
2018-08-25T15:49:35.357Z,93.20
2018-08-25T15:52:03.217Z,91.50
2018-08-25T15:54:31.103Z,90.80
2018-08-25T15:56:58.931Z,90.00
2018-08-25T15:59:26.753Z,89.40
2018-08-25T16:01:54.650Z,90.70
2018-08-25T16:04:22.526Z,90.30
2018-08-25T16:06:50.325Z,90.00
2018-08-25T16:09:19.203Z,90.40
2018-08-25T16:11:47.056Z,90.00
2018-08-25T16:14:14.843Z,89.80
2018-08-25T16:16:42.732Z,88.00
2018-08-25T16:19:10.517Z,88.30
2018-08-25T16:21:38.339Z,90.00
2018-08-25T16:24:06.221Z,90.00
2018-08-25T16:26:34.006Z,90.00
2018-08-25T16:29:01.846Z,89.30
2018-08-25T16:31:29.668Z,86.90
2018-08-25T16:33:57.493Z,88.20
2018-08-25T16:36:25.309Z,88.60
2018-08-25T16:38:53.112Z,87.80
2018-08-25T16:41:20.919Z,89.10
2018-08-25T16:43:48.702Z,89.00
2018-08-25T16:46:17.524Z,89.00
2018-08-25T16:48:45.358Z,87.70
2018-08-25T16:51:13.187Z,85.00
2018-08-25T16:53:41.013Z,83.80
2018-08-25T16:56:08.862Z,83.80
2018-08-25T16:58:36.744Z,85.70
2018-08-25T17:01:04.594Z,87.00
2018-08-25T17:03:32.436Z,88.50
2018-08-25T17:06:00.296Z,90.00
2018-08-25T17:08:28.240Z,90.50
2018-08-25T17:10:56.043Z,91.90
2018-08-25T17:13:23.839Z,91.90
2018-08-25T17:15:51.613Z,93.00
2018-08-25T17:18:19.456Z,93.30
2018-08-25T17:20:47.264Z,94.20
2018-08-25T17:23:15.055Z,94.50
2018-08-25T17:25:42.823Z,95.10
2018-08-25T17:28:10.602Z,94.40
2018-08-25T17:30:38.434Z,94.60
2018-08-25T17:33:06.403Z,95.50
2018-08-25T17:35:34.185Z,96.10
2018-08-25T17:38:02.058Z,96.60
2018-08-25T17:40:29.863Z,97.40
2018-08-25T17:42:57.665Z,96.80
2018-08-25T17:45:25.471Z,97.10
2018-08-25T17:47:53.335Z,97.60
2018-08-25T17:50:22.191Z,97.60
2018-08-25T17:52:50.145Z,97.90
2018-08-25T17:58:05.870Z,98.40
2018-08-25T18:00:33.696Z,99.10
2018-08-25T18:03:01.509Z,99.30
2018-08-25T18:05:29.393Z,98.90
2018-08-25T18:07:57.195Z,99.90
2018-08-25T18:10:25.019Z,99.90
2018-08-25T18:12:52.932Z,99.90
2018-08-25T18:15:20.759Z,99.90
2018-08-25T18:17:48.593Z,99.90
2018-08-25T18:20:16.422Z,99.90
2018-08-25T18:22:44.217Z,99.90
2018-08-25T18:25:12.470Z,99.90
2018-08-25T18:27:40.282Z,99.90
2018-08-25T18:30:08.235Z,99.90
2018-08-25T18:32:36.081Z,99.90
2018-08-25T18:35:03.883Z,99.90
2018-08-25T18:37:31.692Z,99.90
2018-08-25T18:39:59.508Z,99.90
2018-08-25T18:42:27.348Z,99.90
2018-08-25T18:47:20.613Z,99.90
2018-08-25T18:49:48.493Z,99.90
2018-08-25T18:55:09.406Z,99.90
2018-08-25T18:57:37.329Z,99.90
2018-08-25T19:00:06.890Z,99.90
2018-08-25T19:02:34.764Z,99.90
2018-08-25T19:05:02.672Z,99.90
2018-08-25T19:07:30.586Z,99.90
2018-08-25T19:09:58.460Z,99.90
2018-08-25T19:12:26.367Z,99.90
2018-08-25T19:14:55.536Z,99.90
2018-08-25T19:17:23.430Z,99.90
2018-08-25T19:19:51.331Z,99.90
2018-08-25T19:22:20.223Z,99.90
2018-08-25T19:24:48.327Z,99.90
2018-08-25T19:27:16.263Z,99.90
2018-08-25T19:29:44.138Z,99.90
2018-08-25T19:32:11.956Z,99.90
2018-08-25T19:34:40.002Z,99.90
2018-08-25T19:37:07.908Z,99.90
2018-08-25T19:39:36.869Z,99.90
2018-08-25T19:42:08.683Z,99.90
2018-08-25T19:44:36.595Z,99.90
2018-08-25T19:47:06.700Z,99.90
2018-08-25T19:49:34.516Z,99.90
2018-08-25T19:52:02.416Z,99.90
2018-08-25T19:54:31.812Z,99.90
2018-08-25T19:56:59.681Z,99.90
2018-08-25T19:59:27.533Z,99.90
2018-08-25T20:01:55.504Z,99.90
2018-08-25T20:04:25.056Z,99.90
2018-08-25T20:06:52.967Z,99.90
2018-08-25T20:09:20.856Z,99.90
2018-08-25T20:11:48.741Z,99.90
2018-08-25T20:14:16.586Z,99.90
2018-08-25T20:16:44.501Z,99.90
2018-08-25T20:19:12.363Z,99.90
2018-08-25T20:21:40.195Z,99.90
2018-08-25T20:24:08.095Z,99.90
2018-08-25T20:26:36.997Z,99.90
2018-08-25T20:29:04.866Z,99.90
2018-08-25T20:31:34.714Z,99.90
2018-08-25T20:34:02.729Z,99.90
2018-08-25T20:36:33.227Z,99.90
2018-08-25T20:39:01.084Z,99.90
2018-08-25T20:41:29.035Z,99.90
2018-08-25T20:43:56.900Z,99.90
2018-08-25T20:46:26.054Z,99.90
2018-08-25T20:48:53.889Z,99.90
2018-08-25T20:51:21.763Z,99.90
2018-08-25T20:53:49.627Z,99.90
2018-08-25T20:56:17.428Z,99.90
2018-08-25T20:58:45.256Z,99.90
2018-08-25T21:01:13.166Z,99.90
2018-08-25T21:03:41.064Z,99.90
2018-08-25T21:06:08.919Z,99.90
2018-08-25T21:08:36.759Z,99.90
2018-08-25T21:11:04.669Z,99.90
2018-08-25T21:13:32.542Z,99.90
2018-08-25T21:16:00.507Z,99.90
2018-08-25T21:18:28.311Z,99.90
2018-08-25T21:20:56.156Z,99.90
2018-08-25T21:23:23.962Z,99.90
2018-08-25T21:25:51.726Z,99.90
2018-08-25T21:28:19.503Z,99.90
2018-08-25T21:30:47.304Z,99.90
2018-08-25T21:33:15.114Z,99.90
2018-08-25T21:35:42.859Z,99.90
2018-08-25T21:38:11.755Z,99.90
2018-08-25T21:40:39.532Z,99.90
2018-08-25T21:43:07.326Z,99.90
2018-08-25T21:45:35.131Z,99.90
2018-08-25T21:48:02.912Z,99.90
2018-08-25T21:50:30.688Z,99.90
2018-08-25T21:52:58.477Z,99.90
2018-08-25T21:55:26.245Z,99.90
2018-08-25T21:57:54.041Z,99.90
2018-08-25T22:00:21.845Z,99.90
2018-08-25T22:02:49.642Z,99.90
2018-08-25T22:05:17.474Z,99.90
2018-08-25T22:07:45.315Z,99.90
2018-08-25T22:10:13.139Z,99.90
2018-08-25T22:12:40.940Z,99.90
2018-08-25T22:15:08.778Z,99.90
2018-08-25T22:17:36.582Z,99.90
2018-08-25T22:20:05.532Z,99.90
2018-08-25T22:22:33.325Z,99.90
2018-08-25T22:25:01.196Z,99.90
2018-08-25T22:27:29.023Z,99.90
2018-08-25T22:29:56.843Z,99.90
2018-08-25T22:32:24.702Z,99.90
2018-08-25T22:34:53.585Z,99.90
2018-08-25T22:37:21.433Z,99.90
2018-08-25T22:39:50.292Z,99.90
2018-08-25T22:42:18.249Z,99.90
2018-08-25T22:44:46.114Z,99.90
2018-08-25T22:47:13.961Z,99.90
2018-08-25T22:49:41.828Z,99.90
2018-08-25T22:52:09.768Z,99.90
2018-08-25T22:54:37.717Z,99.90
2018-08-25T22:57:05.606Z,99.90
2018-08-25T22:59:33.426Z,99.90
2018-08-25T23:02:01.275Z,99.90
2018-08-25T23:04:29.094Z,99.90
2018-08-25T23:06:56.930Z,99.90
2018-08-25T23:09:24.725Z,99.90
2018-08-25T23:11:52.572Z,99.90
2018-08-25T23:14:20.417Z,99.90
2018-08-25T23:16:48.249Z,99.90
2018-08-25T23:19:16.047Z,99.90
2018-08-25T23:21:43.870Z,99.90
2018-08-25T23:24:12.702Z,99.90
2018-08-25T23:26:40.490Z,99.90
2018-08-25T23:29:08.301Z,99.90
2018-08-25T23:31:36.109Z,99.90
2018-08-25T23:34:03.928Z,99.90
2018-08-25T23:36:31.772Z,99.90
2018-08-25T23:39:00.580Z,99.90
2018-08-25T23:41:28.424Z,99.90
2018-08-25T23:43:56.212Z,99.90
2018-08-25T23:46:23.973Z,99.90
2018-08-25T23:48:51.782Z,99.90
2018-08-25T23:51:19.572Z,99.90
2018-08-25T23:53:47.361Z,99.90
2018-08-25T23:56:15.183Z,99.90
2018-08-25T23:58:42.970Z,99.90
